sensor_id;sensor_type;location;lat;lon;timestamp;P1;durP1;ratioP1;P2;durP2;ratioP2
49710;SDS011;35602;44.534;18.696;2023-06-22T00:02:03;22.37;;;20.27;;
49710;SDS011;35602;44.534;18.696;2023-06-22T00:07:04;21.65;;;19.65;;
49710;SDS011;35602;44.534;18.696;2023-06-22T00:12:06;22.52;;;20.42;;
49710;SDS011;35602;44.534;18.696;2023-06-22T00:17:07;22.42;;;20.23;;
49710;SDS011;35602;44.534;18.696;2023-06-22T00:22:08;22.15;;;20.05;;
49710;SDS011;35602;44.534;18.696;2023-06-22T00:27:09;22.25;;;20.15;;
49710;SDS011;35602;44.534;18.696;2023-06-22T00:32:09;21.35;;;19.30;;
49710;SDS011;35602;44.534;18.696;2023-06-22T00:37:10;21.50;;;19.50;;
49710;SDS011;35602;44.534;18.696;2023-06-22T00:42:11;20.95;;;19.05;;
49710;SDS011;35602;44.534;18.696;2023-06-22T00:47:15;21.45;;;19.55;;
49710;SDS011;35602;44.534;18.696;2023-06-22T00:52:21;22.25;;;20.25;;
49710;SDS011;35602;44.534;18.696;2023-06-22T00:57:27;21.27;;;19.30;;
49710;SDS011;35602;44.534;18.696;2023-06-22T01:02:29;22.10;;;20.02;;
49710;SDS011;35602;44.534;18.696;2023-06-22T01:07:36;20.33;;;18.48;;
49710;SDS011;35602;44.534;18.696;2023-06-22T01:14:07;21.08;;;19.17;;
49710;SDS011;35602;44.534;18.696;2023-06-22T01:25:09;21.10;;;19.30;;
49710;SDS011;35602;44.534;18.696;2023-06-22T01:30:19;20.58;;;18.70;;
49710;SDS011;35602;44.534;18.696;2023-06-22T01:35:21;21.60;;;19.60;;
49710;SDS011;35602;44.534;18.696;2023-06-22T01:40:23;21.27;;;19.27;;
49710;SDS011;35602;44.534;18.696;2023-06-22T01:45:25;20.45;;;18.55;;
49710;SDS011;35602;44.534;18.696;2023-06-22T01:50:27;20.60;;;18.60;;
49710;SDS011;35602;44.534;18.696;2023-06-22T01:55:29;20.33;;;18.45;;
49710;SDS011;35602;44.534;18.696;2023-06-22T02:00:31;20.15;;;18.33;;
49710;SDS011;35602;44.534;18.696;2023-06-22T02:05:36;21.83;;;19.83;;
49710;SDS011;35602;44.534;18.696;2023-06-22T02:10:42;21.08;;;19.12;;
49710;SDS011;35602;44.534;18.696;2023-06-22T02:15:45;20.15;;;18.35;;
49710;SDS011;35602;44.534;18.696;2023-06-22T02:20:47;20.45;;;18.55;;
49710;SDS011;35602;44.534;18.696;2023-06-22T02:25:48;20.35;;;18.55;;
49710;SDS011;35602;44.534;18.696;2023-06-22T02:30:49;21.15;;;19.23;;
49710;SDS011;35602;44.534;18.696;2023-06-22T02:35:50;20.05;;;18.25;;
49710;SDS011;35602;44.534;18.696;2023-06-22T02:40:50;20.98;;;19.10;;
49710;SDS011;35602;44.534;18.696;2023-06-22T02:45:51;19.58;;;17.77;;
49710;SDS011;35602;44.534;18.696;2023-06-22T02:50:53;20.30;;;18.50;;
49710;SDS011;35602;44.534;18.696;2023-06-22T02:55:53;21.00;;;19.15;;
49710;SDS011;35602;44.534;18.696;2023-06-22T03:00:55;20.62;;;18.73;;
49710;SDS011;35602;44.534;18.696;2023-06-22T03:05:56;19.67;;;17.87;;
49710;SDS011;35602;44.534;18.696;2023-06-22T03:10:57;19.40;;;17.60;;
49710;SDS011;35602;44.534;18.696;2023-06-22T03:15:58;20.30;;;18.50;;
49710;SDS011;35602;44.534;18.696;2023-06-22T03:20:59;20.85;;;18.85;;
49710;SDS011;35602;44.534;18.696;2023-06-22T03:26:02;19.62;;;17.85;;
49710;SDS011;35602;44.534;18.696;2023-06-22T03:31:04;20.92;;;19.10;;
49710;SDS011;35602;44.534;18.696;2023-06-22T03:36:06;20.27;;;18.48;;
49710;SDS011;35602;44.534;18.696;2023-06-22T03:41:08;20.85;;;19.05;;
49710;SDS011;35602;44.534;18.696;2023-06-22T03:46:09;19.55;;;17.77;;
49710;SDS011;35602;44.534;18.696;2023-06-22T03:51:10;20.20;;;18.40;;
49710;SDS011;35602;44.534;18.696;2023-06-22T03:56:11;20.77;;;18.87;;
49710;SDS011;35602;44.534;18.696;2023-06-22T04:01:12;20.15;;;18.30;;
49710;SDS011;35602;44.534;18.696;2023-06-22T04:06:13;23.10;;;20.98;;
49710;SDS011;35602;44.534;18.696;2023-06-22T04:11:13;19.98;;;18.23;;
49710;SDS011;35602;44.534;18.696;2023-06-22T04:16:14;20.23;;;18.35;;
49710;SDS011;35602;44.534;18.696;2023-06-22T04:21:15;19.55;;;17.75;;
49710;SDS011;35602;44.534;18.696;2023-06-22T04:26:16;19.75;;;18.05;;
49710;SDS011;35602;44.534;18.696;2023-06-22T04:31:17;21.23;;;19.33;;
49710;SDS011;35602;44.534;18.696;2023-06-22T04:36:19;19.95;;;18.15;;
49710;SDS011;35602;44.534;18.696;2023-06-22T04:41:21;21.85;;;19.85;;
49710;SDS011;35602;44.534;18.696;2023-06-22T04:46:23;20.83;;;18.85;;
49710;SDS011;35602;44.534;18.696;2023-06-22T04:51:25;19.77;;;17.95;;
49710;SDS011;35602;44.534;18.696;2023-06-22T04:56:30;20.15;;;18.30;;
49710;SDS011;35602;44.534;18.696;2023-06-22T05:01:31;21.70;;;19.70;;
49710;SDS011;35602;44.534;18.696;2023-06-22T05:06:32;21.33;;;19.37;;
49710;SDS011;35602;44.534;18.696;2023-06-22T05:11:33;20.30;;;18.40;;
49710;SDS011;35602;44.534;18.696;2023-06-22T05:16:34;21.35;;;19.45;;
49710;SDS011;35602;44.534;18.696;2023-06-22T05:21:36;19.92;;;18.08;;
49710;SDS011;35602;44.534;18.696;2023-06-22T05:26:37;21.98;;;19.87;;
49710;SDS011;35602;44.534;18.696;2023-06-22T05:31:38;21.58;;;19.65;;
49710;SDS011;35602;44.534;18.696;2023-06-22T05:36:40;21.33;;;19.42;;
49710;SDS011;35602;44.534;18.696;2023-06-22T05:41:44;20.80;;;18.95;;
49710;SDS011;35602;44.534;18.696;2023-06-22T05:46:46;21.10;;;19.15;;
49710;SDS011;35602;44.534;18.696;2023-06-22T05:51:48;22.85;;;20.50;;
49710;SDS011;35602;44.534;18.696;2023-06-22T05:56:49;21.48;;;19.52;;
49710;SDS011;35602;44.534;18.696;2023-06-22T06:01:50;21.12;;;19.15;;
49710;SDS011;35602;44.534;18.696;2023-06-22T06:06:50;20.77;;;18.87;;
49710;SDS011;35602;44.534;18.696;2023-06-22T06:11:51;21.00;;;19.00;;
49710;SDS011;35602;44.534;18.696;2023-06-22T06:16:52;19.05;;;17.40;;
49710;SDS011;35602;44.534;18.696;2023-06-22T06:21:53;19.77;;;18.02;;
49710;SDS011;35602;44.534;18.696;2023-06-22T06:26:54;21.00;;;19.10;;
49710;SDS011;35602;44.534;18.696;2023-06-22T06:31:55;20.83;;;18.92;;
49710;SDS011;35602;44.534;18.696;2023-06-22T06:36:57;20.95;;;19.05;;
49710;SDS011;35602;44.534;18.696;2023-06-22T06:41:58;20.83;;;19.02;;
49710;SDS011;35602;44.534;18.696;2023-06-22T06:46:58;21.17;;;19.27;;
49710;SDS011;35602;44.534;18.696;2023-06-22T06:51:59;20.90;;;18.77;;
49710;SDS011;35602;44.534;18.696;2023-06-22T06:57:00;21.17;;;19.17;;
49710;SDS011;35602;44.534;18.696;2023-06-22T07:02:03;20.55;;;18.70;;
49710;SDS011;35602;44.534;18.696;2023-06-22T07:07:05;21.35;;;19.30;;
49710;SDS011;35602;44.534;18.696;2023-06-22T07:12:06;21.62;;;19.27;;
49710;SDS011;35602;44.534;18.696;2023-06-22T07:17:07;19.60;;;17.83;;
49710;SDS011;35602;44.534;18.696;2023-06-22T07:22:08;20.80;;;18.80;;
49710;SDS011;35602;44.534;18.696;2023-06-22T07:27:09;22.37;;;20.27;;
49710;SDS011;35602;44.534;18.696;2023-06-22T07:32:12;21.50;;;19.27;;
49710;SDS011;35602;44.534;18.696;2023-06-22T07:37:13;22.10;;;20.02;;
49710;SDS011;35602;44.534;18.696;2023-06-22T07:42:14;21.90;;;19.80;;
49710;SDS011;35602;44.534;18.696;2023-06-22T07:47:18;21.00;;;19.00;;
49710;SDS011;35602;44.534;18.696;2023-06-22T07:52:19;21.17;;;19.05;;
49710;SDS011;35602;44.534;18.696;2023-06-22T07:57:21;22.33;;;20.23;;
49710;SDS011;35602;44.534;18.696;2023-06-22T08:02:22;20.20;;;18.33;;
49710;SDS011;35602;44.534;18.696;2023-06-22T08:07:22;22.37;;;20.17;;
49710;SDS011;35602;44.534;18.696;2023-06-22T08:12:23;21.37;;;19.37;;
49710;SDS011;35602;44.534;18.696;2023-06-22T08:17:24;22.17;;;20.08;;
49710;SDS011;35602;44.534;18.696;2023-06-22T08:22:25;21.52;;;19.45;;
49710;SDS011;35602;44.534;18.696;2023-06-22T08:27:26;21.92;;;19.92;;
49710;SDS011;35602;44.534;18.696;2023-06-22T08:32:28;22.15;;;19.87;;
49710;SDS011;35602;44.534;18.696;2023-06-22T08:37:29;22.92;;;20.65;;
49710;SDS011;35602;44.534;18.696;2023-06-22T08:42:30;22.98;;;20.90;;
49710;SDS011;35602;44.534;18.696;2023-06-22T08:47:32;22.30;;;20.10;;
49710;SDS011;35602;44.534;18.696;2023-06-22T08:52:32;24.12;;;21.92;;
49710;SDS011;35602;44.534;18.696;2023-06-22T08:57:33;23.50;;;21.05;;
49710;SDS011;35602;44.534;18.696;2023-06-22T09:02:34;25.20;;;22.80;;
49710;SDS011;35602;44.534;18.696;2023-06-22T09:07:35;23.50;;;21.30;;
49710;SDS011;35602;44.534;18.696;2023-06-22T09:12:36;23.02;;;20.83;;
49710;SDS011;35602;44.534;18.696;2023-06-22T09:17:37;22.65;;;20.55;;
49710;SDS011;35602;44.534;18.696;2023-06-22T09:22:38;25.90;;;23.35;;
49710;SDS011;35602;44.534;18.696;2023-06-22T09:27:39;23.70;;;21.37;;
49710;SDS011;35602;44.534;18.696;2023-06-22T09:32:40;24.25;;;21.95;;
49710;SDS011;35602;44.534;18.696;2023-06-22T09:37:42;24.83;;;22.33;;
49710;SDS011;35602;44.534;18.696;2023-06-22T09:42:43;24.33;;;21.92;;
49710;SDS011;35602;44.534;18.696;2023-06-22T09:47:44;23.45;;;21.25;;
49710;SDS011;35602;44.534;18.696;2023-06-22T09:52:45;24.67;;;22.23;;
49710;SDS011;35602;44.534;18.696;2023-06-22T09:57:50;26.13;;;23.63;;
49710;SDS011;35602;44.534;18.696;2023-06-22T10:02:51;26.12;;;23.52;;
49710;SDS011;35602;44.534;18.696;2023-06-22T10:07:52;25.25;;;22.75;;
49710;SDS011;35602;44.534;18.696;2023-06-22T10:12:57;25.55;;;23.08;;
49710;SDS011;35602;44.534;18.696;2023-06-22T10:18:02;26.50;;;23.90;;
49710;SDS011;35602;44.534;18.696;2023-06-22T10:23:03;25.98;;;23.45;;
49710;SDS011;35602;44.534;18.696;2023-06-22T10:28:04;28.92;;;26.15;;
49710;SDS011;35602;44.534;18.696;2023-06-22T10:33:05;28.98;;;26.08;;
49710;SDS011;35602;44.534;18.696;2023-06-22T10:38:06;29.12;;;26.33;;
49710;SDS011;35602;44.534;18.696;2023-06-22T10:43:08;28.75;;;25.92;;
49710;SDS011;35602;44.534;18.696;2023-06-22T10:48:08;28.15;;;25.23;;
49710;SDS011;35602;44.534;18.696;2023-06-22T10:53:09;29.33;;;26.50;;
49710;SDS011;35602;44.534;18.696;2023-06-22T10:58:10;29.77;;;26.75;;
49710;SDS011;35602;44.534;18.696;2023-06-22T11:03:11;29.58;;;26.85;;
49710;SDS011;35602;44.534;18.696;2023-06-22T11:08:14;29.17;;;26.30;;
49710;SDS011;35602;44.534;18.696;2023-06-22T11:13:15;31.02;;;27.92;;
49710;SDS011;35602;44.534;18.696;2023-06-22T11:18:15;29.63;;;26.65;;
49710;SDS011;35602;44.534;18.696;2023-06-22T11:23:16;30.73;;;27.80;;
49710;SDS011;35602;44.534;18.696;2023-06-22T11:28:17;30.95;;;27.98;;
49710;SDS011;35602;44.534;18.696;2023-06-22T11:33:18;30.42;;;27.45;;
49710;SDS011;35602;44.534;18.696;2023-06-22T11:38:19;29.92;;;26.92;;
49710;SDS011;35602;44.534;18.696;2023-06-22T11:43:20;30.37;;;27.58;;
49710;SDS011;35602;44.534;18.696;2023-06-22T11:48:20;32.15;;;29.00;;
49710;SDS011;35602;44.534;18.696;2023-06-22T11:53:22;30.92;;;27.98;;
49710;SDS011;35602;44.534;18.696;2023-06-22T11:58:26;32.25;;;28.87;;
49710;SDS011;35602;44.534;18.696;2023-06-22T12:03:27;30.05;;;27.15;;
49710;SDS011;35602;44.534;18.696;2023-06-22T12:08:29;31.48;;;28.33;;
49710;SDS011;35602;44.534;18.696;2023-06-22T12:13:29;30.95;;;27.90;;
49710;SDS011;35602;44.534;18.696;2023-06-22T12:18:30;31.67;;;28.48;;
49710;SDS011;35602;44.534;18.696;2023-06-22T12:23:31;31.42;;;28.20;;
49710;SDS011;35602;44.534;18.696;2023-06-22T12:28:32;31.48;;;28.52;;
49710;SDS011;35602;44.534;18.696;2023-06-22T12:33:34;30.60;;;27.55;;
49710;SDS011;35602;44.534;18.696;2023-06-22T12:38:35;32.90;;;29.48;;
49710;SDS011;35602;44.534;18.696;2023-06-22T12:43:36;30.73;;;27.77;;
49710;SDS011;35602;44.534;18.696;2023-06-22T12:48:36;30.73;;;27.73;;
49710;SDS011;35602;44.534;18.696;2023-06-22T12:53:41;30.98;;;27.92;;
49710;SDS011;35602;44.534;18.696;2023-06-22T12:58:43;30.25;;;27.10;;
49710;SDS011;35602;44.534;18.696;2023-06-22T13:03:44;30.67;;;27.77;;
49710;SDS011;35602;44.534;18.696;2023-06-22T13:08:45;31.33;;;28.17;;
49710;SDS011;35602;44.534;18.696;2023-06-22T13:13:46;32.15;;;28.90;;
49710;SDS011;35602;44.534;18.696;2023-06-22T13:18:47;31.08;;;27.98;;
49710;SDS011;35602;44.534;18.696;2023-06-22T13:23:48;30.17;;;27.25;;
49710;SDS011;35602;44.534;18.696;2023-06-22T13:28:48;29.73;;;26.83;;
49710;SDS011;35602;44.534;18.696;2023-06-22T13:33:49;28.40;;;25.58;;
49710;SDS011;35602;44.534;18.696;2023-06-22T13:38:52;29.50;;;26.60;;
49710;SDS011;35602;44.534;18.696;2023-06-22T13:43:53;27.55;;;24.77;;
49710;SDS011;35602;44.534;18.696;2023-06-22T13:48:53;30.27;;;27.27;;
49710;SDS011;35602;44.534;18.696;2023-06-22T13:53:54;30.92;;;27.83;;
49710;SDS011;35602;44.534;18.696;2023-06-22T13:58:55;28.73;;;25.62;;
49710;SDS011;35602;44.534;18.696;2023-06-22T14:03:56;30.88;;;27.85;;
49710;SDS011;35602;44.534;18.696;2023-06-22T14:08:57;30.08;;;27.13;;
49710;SDS011;35602;44.534;18.696;2023-06-22T14:13:58;30.55;;;27.70;;
49710;SDS011;35602;44.534;18.696;2023-06-22T14:18:58;31.00;;;28.10;;
49710;SDS011;35602;44.534;18.696;2023-06-22T14:23:59;30.42;;;27.50;;
49710;SDS011;35602;44.534;18.696;2023-06-22T14:29:00;29.40;;;26.60;;
49710;SDS011;35602;44.534;18.696;2023-06-22T14:34:01;30.83;;;27.83;;
49710;SDS011;35602;44.534;18.696;2023-06-22T14:39:03;30.42;;;27.40;;
49710;SDS011;35602;44.534;18.696;2023-06-22T14:44:04;30.80;;;27.80;;
49710;SDS011;35602;44.534;18.696;2023-06-22T14:49:05;29.90;;;27.00;;
49710;SDS011;35602;44.534;18.696;2023-06-22T14:54:06;29.77;;;26.87;;
49710;SDS011;35602;44.534;18.696;2023-06-22T14:59:07;31.10;;;28.17;;
49710;SDS011;35602;44.534;18.696;2023-06-22T15:04:10;31.52;;;28.40;;
49710;SDS011;35602;44.534;18.696;2023-06-22T15:09:11;29.52;;;26.60;;
49710;SDS011;35602;44.534;18.696;2023-06-22T15:14:13;29.85;;;26.90;;
49710;SDS011;35602;44.534;18.696;2023-06-22T15:19:14;29.25;;;26.45;;
49710;SDS011;35602;44.534;18.696;2023-06-22T15:24:15;29.20;;;26.37;;
49710;SDS011;35602;44.534;18.696;2023-06-22T15:29:16;30.50;;;27.58;;
49710;SDS011;35602;44.534;18.696;2023-06-22T15:34:17;29.02;;;26.15;;
49710;SDS011;35602;44.534;18.696;2023-06-22T15:39:17;30.08;;;27.08;;
49710;SDS011;35602;44.534;18.696;2023-06-22T15:44:18;31.35;;;28.25;;
49710;SDS011;35602;44.534;18.696;2023-06-22T15:49:19;30.45;;;27.30;;
49710;SDS011;35602;44.534;18.696;2023-06-22T15:54:20;30.27;;;27.33;;
49710;SDS011;35602;44.534;18.696;2023-06-22T15:59:21;32.00;;;29.00;;
49710;SDS011;35602;44.534;18.696;2023-06-22T16:04:23;29.55;;;26.75;;
49710;SDS011;35602;44.534;18.696;2023-06-22T16:09:24;31.20;;;28.23;;
49710;SDS011;35602;44.534;18.696;2023-06-22T16:14:25;30.98;;;28.05;;
49710;SDS011;35602;44.534;18.696;2023-06-22T16:19:26;30.95;;;28.00;;
49710;SDS011;35602;44.534;18.696;2023-06-22T16:24:27;30.67;;;27.67;;
49710;SDS011;35602;44.534;18.696;2023-06-22T16:29:28;30.12;;;27.23;;
49710;SDS011;35602;44.534;18.696;2023-06-22T16:34:30;31.25;;;28.23;;
49710;SDS011;35602;44.534;18.696;2023-06-22T16:39:31;30.83;;;27.92;;
49710;SDS011;35602;44.534;18.696;2023-06-22T16:44:32;31.50;;;28.33;;
49710;SDS011;35602;44.534;18.696;2023-06-22T16:49:34;30.55;;;27.45;;
49710;SDS011;35602;44.534;18.696;2023-06-22T16:54:38;31.30;;;28.38;;
49710;SDS011;35602;44.534;18.696;2023-06-22T16:59:43;31.52;;;28.55;;
49710;SDS011;35602;44.534;18.696;2023-06-22T17:04:44;32.08;;;29.00;;
49710;SDS011;35602;44.534;18.696;2023-06-22T17:09:46;30.83;;;27.83;;
49710;SDS011;35602;44.534;18.696;2023-06-22T17:14:48;30.88;;;27.87;;
49710;SDS011;35602;44.534;18.696;2023-06-22T17:19:51;31.17;;;28.08;;
49710;SDS011;35602;44.534;18.696;2023-06-22T17:24:52;30.77;;;27.67;;
49710;SDS011;35602;44.534;18.696;2023-06-22T17:30:06;30.75;;;27.65;;
49710;SDS011;35602;44.534;18.696;2023-06-22T17:35:16;29.42;;;26.62;;
49710;SDS011;35602;44.534;18.696;2023-06-22T17:40:18;30.92;;;27.83;;
49710;SDS011;35602;44.534;18.696;2023-06-22T17:45:21;32.58;;;29.48;;
49710;SDS011;35602;44.534;18.696;2023-06-22T17:50:24;30.50;;;27.50;;
49710;SDS011;35602;44.534;18.696;2023-06-22T17:55:25;32.35;;;29.23;;
49710;SDS011;35602;44.534;18.696;2023-06-22T18:00:26;29.87;;;26.95;;
49710;SDS011;35602;44.534;18.696;2023-06-22T18:05:28;31.27;;;28.30;;
49710;SDS011;35602;44.534;18.696;2023-06-22T18:10:36;30.30;;;27.45;;
49710;SDS011;35602;44.534;18.696;2023-06-22T18:15:40;29.83;;;27.02;;
49710;SDS011;35602;44.534;18.696;2023-06-22T18:20:42;32.33;;;29.08;;
49710;SDS011;35602;44.534;18.696;2023-06-22T18:25:47;32.25;;;29.12;;
49710;SDS011;35602;44.534;18.696;2023-06-22T18:30:48;33.00;;;29.77;;
49710;SDS011;35602;44.534;18.696;2023-06-22T18:35:50;31.50;;;28.30;;
49710;SDS011;35602;44.534;18.696;2023-06-22T18:40:52;32.58;;;29.45;;
49710;SDS011;35602;44.534;18.696;2023-06-22T18:45:53;31.87;;;28.83;;
49710;SDS011;35602;44.534;18.696;2023-06-22T18:50:59;33.42;;;30.27;;
49710;SDS011;35602;44.534;18.696;2023-06-22T18:56:11;32.97;;;29.67;;
49710;SDS011;35602;44.534;18.696;2023-06-22T19:01:17;33.83;;;30.52;;
49710;SDS011;35602;44.534;18.696;2023-06-22T19:06:53;31.85;;;28.85;;
49710;SDS011;35602;44.534;18.696;2023-06-22T19:17:18;32.65;;;29.35;;
49710;SDS011;35602;44.534;18.696;2023-06-22T19:22:19;34.15;;;30.85;;
49710;SDS011;35602;44.534;18.696;2023-06-22T19:27:43;32.30;;;29.20;;
49710;SDS011;35602;44.534;18.696;2023-06-22T19:32:45;32.38;;;29.27;;
49710;SDS011;35602;44.534;18.696;2023-06-22T19:37:47;32.38;;;29.08;;
49710;SDS011;35602;44.534;18.696;2023-06-22T19:42:52;33.95;;;30.65;;
49710;SDS011;35602;44.534;18.696;2023-06-22T19:47:55;33.20;;;29.92;;
49710;SDS011;35602;44.534;18.696;2023-06-22T19:52:57;33.33;;;30.12;;
49710;SDS011;35602;44.534;18.696;2023-06-22T19:57:58;31.33;;;28.30;;
49710;SDS011;35602;44.534;18.696;2023-06-22T20:02:59;32.38;;;29.27;;
49710;SDS011;35602;44.534;18.696;2023-06-22T20:08:02;32.83;;;29.63;;
49710;SDS011;35602;44.534;18.696;2023-06-22T20:13:06;33.17;;;29.98;;
49710;SDS011;35602;44.534;18.696;2023-06-22T20:18:14;34.28;;;30.85;;
49710;SDS011;35602;44.534;18.696;2023-06-22T20:23:21;33.60;;;30.25;;
49710;SDS011;35602;44.534;18.696;2023-06-22T20:28:24;32.95;;;29.75;;
49710;SDS011;35602;44.534;18.696;2023-06-22T20:33:26;32.28;;;29.25;;
49710;SDS011;35602;44.534;18.696;2023-06-22T20:38:27;33.13;;;29.90;;
49710;SDS011;35602;44.534;18.696;2023-06-22T20:43:28;34.42;;;31.08;;
49710;SDS011;35602;44.534;18.696;2023-06-22T20:48:29;30.80;;;27.90;;
49710;SDS011;35602;44.534;18.696;2023-06-22T20:53:31;33.75;;;30.42;;
49710;SDS011;35602;44.534;18.696;2023-06-22T20:58:32;32.88;;;29.67;;
49710;SDS011;35602;44.534;18.696;2023-06-22T21:03:33;32.00;;;28.87;;
49710;SDS011;35602;44.534;18.696;2023-06-22T21:08:35;32.55;;;29.35;;
49710;SDS011;35602;44.534;18.696;2023-06-22T21:13:38;33.15;;;29.95;;
49710;SDS011;35602;44.534;18.696;2023-06-22T21:18:39;32.33;;;29.10;;
49710;SDS011;35602;44.534;18.696;2023-06-22T21:23:39;31.77;;;28.67;;
49710;SDS011;35602;44.534;18.696;2023-06-22T21:28:40;33.20;;;30.12;;
49710;SDS011;35602;44.534;18.696;2023-06-22T21:33:42;33.50;;;30.30;;
49710;SDS011;35602;44.534;18.696;2023-06-22T21:38:43;32.60;;;29.40;;
49710;SDS011;35602;44.534;18.696;2023-06-22T21:43:44;32.78;;;29.58;;
49710;SDS011;35602;44.534;18.696;2023-06-22T21:48:45;32.28;;;29.23;;
49710;SDS011;35602;44.534;18.696;2023-06-22T21:53:45;32.35;;;29.23;;
49710;SDS011;35602;44.534;18.696;2023-06-22T21:58:46;31.83;;;28.83;;
49710;SDS011;35602;44.534;18.696;2023-06-22T22:03:47;30.40;;;27.60;;
49710;SDS011;35602;44.534;18.696;2023-06-22T22:08:48;31.35;;;28.35;;
49710;SDS011;35602;44.534;18.696;2023-06-22T22:13:51;30.10;;;27.25;;
49710;SDS011;35602;44.534;18.696;2023-06-22T22:18:52;32.67;;;29.58;;
49710;SDS011;35602;44.534;18.696;2023-06-22T22:23:53;31.70;;;28.67;;
49710;SDS011;35602;44.534;18.696;2023-06-22T22:28:54;32.15;;;29.15;;
49710;SDS011;35602;44.534;18.696;2023-06-22T22:33:55;32.45;;;29.25;;
49710;SDS011;35602;44.534;18.696;2023-06-22T22:38:56;31.35;;;28.35;;
49710;SDS011;35602;44.534;18.696;2023-06-22T22:43:57;31.83;;;28.87;;
49710;SDS011;35602;44.534;18.696;2023-06-22T22:48:58;31.20;;;28.15;;
49710;SDS011;35602;44.534;18.696;2023-06-22T22:53:59;31.60;;;28.50;;
49710;SDS011;35602;44.534;18.696;2023-06-22T22:59:00;31.58;;;28.67;;
49710;SDS011;35602;44.534;18.696;2023-06-22T23:04:01;33.17;;;30.15;;
49710;SDS011;35602;44.534;18.696;2023-06-22T23:09:01;30.23;;;27.33;;
49710;SDS011;35602;44.534;18.696;2023-06-22T23:14:02;30.37;;;27.52;;
49710;SDS011;35602;44.534;18.696;2023-06-22T23:19:03;29.27;;;26.48;;
49710;SDS011;35602;44.534;18.696;2023-06-22T23:24:04;33.30;;;30.12;;
49710;SDS011;35602;44.534;18.696;2023-06-22T23:29:07;31.25;;;28.27;;
49710;SDS011;35602;44.534;18.696;2023-06-22T23:34:08;30.85;;;27.95;;
49710;SDS011;35602;44.534;18.696;2023-06-22T23:39:10;30.95;;;28.05;;
49710;SDS011;35602;44.534;18.696;2023-06-22T23:44:12;29.95;;;27.20;;
49710;SDS011;35602;44.534;18.696;2023-06-22T23:49:13;31.42;;;28.42;;
49710;SDS011;35602;44.534;18.696;2023-06-22T23:54:14;30.50;;;27.60;;
49710;SDS011;35602;44.534;18.696;2023-06-22T23:59:16;31.87;;;28.87;;
